Time;durP1;ratioP1;P1;durP2;ratioP2;P2;SDS_P1;SDS_P2;PMS_P1;PMS_P2;Temp;Humidity;BMP_temperature;BMP_pressure;BME280_temperature;BME280_humidity;BME280_pressure;Samples;Min_cycle;Max_cycle;Signal;HPM_P1;HPM_P2
2022/07/24 00:01:22;;;;;;;6.90;6.30;;;22.40;99.90;;;;;;10604288;28;20777;-89
2022/07/24 00:06:25;;;;;;;7.13;6.53;;;22.40;99.90;;;;;;10604917;28;20188;-89
2022/07/24 00:11:28;;;;;;;6.15;5.65;;;22.30;99.90;;;;;;10604155;28;20260;-89
2022/07/24 00:16:30;;;;;;;7.40;6.15;;;22.40;99.90;;;;;;10622859;28;20200;-88
2022/07/24 00:21:33;;;;;;;6.70;6.10;;;22.30;99.90;;;;;;10622749;28;20704;-89
2022/07/24 00:26:36;;;;;;;6.80;6.20;;;22.30;99.90;;;;;;10623085;28;20214;-89
2022/07/24 00:31:38;;;;;;;6.38;5.78;;;22.30;99.90;;;;;;10607142;27;20228;-88
2022/07/24 00:36:43;;;;;;;6.43;5.82;;;22.30;99.90;;;;;;10612793;27;20196;-88
2022/07/24 00:41:45;;;;;;;6.00;5.50;;;22.30;99.90;;;;;;10612294;27;20588;-90
2022/07/24 00:46:48;;;;;;;6.97;5.97;;;22.30;99.90;;;;;;10611728;27;20268;-89
2022/07/24 00:51:52;;;;;;;5.93;5.43;;;22.30;99.90;;;;;;10630754;27;20192;-89
2022/07/24 00:56:55;;;;;;;5.88;5.38;;;22.20;99.90;;;;;;10611615;27;20184;-88
2022/07/24 01:01:57;;;;;;;5.70;5.20;;;22.20;99.90;;;;;;10611771;27;20213;-89
2022/07/24 01:07:00;;;;;;;6.20;5.70;;;22.20;99.90;;;;;;10612236;27;20192;-88
2022/07/24 01:12:03;;;;;;;5.97;5.47;;;22.30;99.90;;;;;;10611630;27;20200;-88
2022/07/24 01:17:05;;;;;;;6.05;5.55;;;22.20;99.90;;;;;;10611112;27;20196;-89
2022/07/24 01:22:08;;;;;;;6.63;5.97;;;22.20;99.90;;;;;;10593720;27;20220;-89
2022/07/24 01:27:11;;;;;;;5.40;5.00;;;22.20;99.90;;;;;;10629272;27;20219;-89
2022/07/24 01:32:13;;;;;;;5.80;5.30;;;22.20;99.90;;;;;;10611232;27;20232;-88
2022/07/24 01:37:15;;;;;;;6.07;5.47;;;22.20;99.90;;;;;;10610729;27;20192;-89
2022/07/24 01:42:20;;;;;;;6.72;6.13;;;22.20;99.90;;;;;;10628001;27;20245;-89
2022/07/24 01:47:23;;;;;;;6.38;5.78;;;22.20;99.90;;;;;;10611889;27;20208;-89
2022/07/24 01:52:25;;;;;;;5.85;5.35;;;22.20;99.90;;;;;;10608867;27;20204;-89
2022/07/24 01:57:28;;;;;;;5.40;5.00;;;22.20;99.90;;;;;;10627503;27;20196;-89
2022/07/24 02:02:31;;;;;;;5.07;4.68;;;22.20;99.90;;;;;;10627335;27;20625;-89
2022/07/24 02:07:34;;;;;;;5.53;5.03;;;22.20;99.90;;;;;;10609112;27;20196;-89
2022/07/24 02:12:37;;;;;;;5.32;4.88;;;22.20;99.90;;;;;;10627213;27;20342;-90
2022/07/24 02:17:44;;;;;;;5.82;5.32;;;22.20;99.90;;;;;;10608687;27;20201;-89
2022/07/24 02:22:47;;;;;;;5.90;5.30;;;22.20;99.90;;;;;;10608832;27;20221;-89
2022/07/24 02:27:49;;;;;;;5.28;4.75;;;22.20;99.90;;;;;;10609192;27;20214;-89
2022/07/24 02:32:52;;;;;;;5.30;4.90;;;22.20;99.90;;;;;;10626346;27;20265;-89
2022/07/24 02:37:54;;;;;;;4.90;4.50;;;22.20;99.90;;;;;;10607094;27;20253;-89
2022/07/24 02:42:57;;;;;;;6.13;5.50;;;22.20;99.90;;;;;;10606788;27;20277;-89
2022/07/24 02:48:00;;;;;;;4.60;4.20;;;22.20;99.90;;;;;;10625474;27;20300;-90
2022/07/24 02:53:02;;;;;;;5.40;4.90;;;22.20;99.90;;;;;;10606881;27;20188;-90
2022/07/24 02:58:05;;;;;;;5.50;5.00;;;22.20;99.90;;;;;;10625869;27;20253;-90
2022/07/24 03:03:07;;;;;;;5.22;4.72;;;22.20;99.90;;;;;;10625172;27;20216;-90
2022/07/24 03:08:10;;;;;;;5.03;4.63;;;22.10;99.90;;;;;;10607027;27;20189;-90
2022/07/24 03:13:12;;;;;;;4.47;4.07;;;22.10;99.90;;;;;;10625356;27;20265;-89
2022/07/24 03:18:15;;;;;;;4.50;4.10;;;22.10;99.90;;;;;;10606789;27;20225;-89
2022/07/24 03:23:24;;;;;;;5.15;4.65;;;22.10;99.90;;;;;;10605993;27;20224;-90
2022/07/24 03:28:26;;;;;;;4.82;4.38;;;22.10;99.90;;;;;;10625341;27;20280;-89
2022/07/24 03:33:29;;;;;;;5.30;4.80;;;22.20;99.90;;;;;;10605162;27;20281;-89
2022/07/24 03:38:32;;;;;;;5.05;4.65;;;22.20;99.90;;;;;;10605315;27;20204;-89
2022/07/24 03:43:34;;;;;;;4.93;4.53;;;22.10;99.90;;;;;;10605160;27;20289;-90
2022/07/24 03:48:37;;;;;;;4.13;3.83;;;22.20;99.90;;;;;;10624007;28;20226;-90
2022/07/24 03:53:39;;;;;;;4.30;4.00;;;22.10;99.90;;;;;;10624108;28;20233;-90
2022/07/24 03:58:43;;;;;;;4.20;3.90;;;22.20;99.90;;;;;;10623625;28;20196;-89
2022/07/24 04:03:45;;;;;;;4.15;3.85;;;22.20;99.90;;;;;;10623678;27;20556;-90
2022/07/24 04:08:48;;;;;;;5.05;4.10;;;22.10;99.90;;;;;;10632396;27;20188;-90
2022/07/24 04:13:50;;;;;;;4.80;4.38;;;22.20;99.90;;;;;;10632530;27;20613;-89
2022/07/24 04:18:53;;;;;;;4.03;3.72;;;22.20;99.90;;;;;;10631899;27;20201;-90
2022/07/24 04:23:55;;;;;;;4.13;3.72;;;22.20;99.90;;;;;;10613592;27;20561;-90
2022/07/24 04:28:58;;;;;;;4.55;4.15;;;22.20;99.90;;;;;;10631586;27;20549;-89
2022/07/24 04:34:00;;;;;;;5.10;3.80;;;22.20;99.90;;;;;;10631763;27;20704;-89
2022/07/24 04:39:03;;;;;;;3.97;3.67;;;22.20;99.90;;;;;;10631191;27;20192;-90
2022/07/24 04:44:10;;;;;;;3.63;3.33;;;22.20;99.90;;;;;;10613564;27;20220;-89
2022/07/24 04:49:12;;;;;;;4.03;3.72;;;22.20;99.90;;;;;;10630499;27;20196;-90
2022/07/24 04:54:15;;;;;;;4.18;3.78;;;22.10;99.90;;;;;;10612117;27;20229;-90
2022/07/24 04:59:17;;;;;;;3.53;2.88;;;22.00;99.90;;;;;;10630304;27;20217;-89
2022/07/24 05:04:20;;;;;;;4.28;3.40;;;22.00;99.90;;;;;;10630321;27;20212;-90
2022/07/24 05:09:23;;;;;;;4.15;3.75;;;22.00;99.90;;;;;;10612377;27;20552;-88
2022/07/24 05:14:25;;;;;;;3.63;3.33;;;22.10;99.90;;;;;;10611506;27;20246;-90
2022/07/24 05:19:28;;;;;;;7.00;3.38;;;22.10;99.90;;;;;;10628089;27;20196;-90
2022/07/24 05:24:30;;;;;;;3.97;3.58;;;22.00;99.90;;;;;;10628898;27;20281;-89
2022/07/24 05:29:33;;;;;;;3.72;3.42;;;22.10;99.90;;;;;;10628883;27;20192;-90
2022/07/24 05:34:35;;;;;;;3.42;3.13;;;21.90;99.90;;;;;;10628296;27;20269;-89
2022/07/24 05:39:42;;;;;;;4.07;3.65;;;22.10;99.90;;;;;;10628283;27;20237;-89
2022/07/24 05:44:45;;;;;;;3.50;2.67;;;;;;;;;;10609360;27;20192;-89
2022/07/24 05:49:47;;;;;;;5.00;2.63;;;21.50;99.90;;;;;;10628339;27;20251;-89
2022/07/24 05:54:49;;;;;;;4.30;3.85;;;21.40;99.90;;;;;;10628297;27;20188;-90
2022/07/24 05:59:52;;;;;;;4.15;3.05;;;21.70;99.90;;;;;;10609188;27;20218;-90
2022/07/24 06:04:54;;;;;;;3.47;3.15;;;21.60;99.90;;;;;;10611765;27;20558;-90
2022/07/24 06:09:57;;;;;;;3.25;3.03;;;21.70;99.90;;;;;;10612711;27;20188;-90
2022/07/24 06:14:59;;;;;;;3.10;2.90;;;21.40;99.90;;;;;;10628335;27;20193;-89
2022/07/24 06:20:04;;;;;;;3.70;2.13;;;21.40;99.90;;;;;;10626739;27;20245;-90
2022/07/24 06:25:07;;;;;;;3.05;2.67;;;21.20;99.90;;;;;;10608165;27;20261;-90
2022/07/24 06:30:18;;;;;;;3.00;2.70;;;21.50;99.90;;;;;;10625993;27;20562;-89
2022/07/24 06:35:21;;;;;;;3.30;3.00;;;21.80;99.90;;;;;;10607803;27;20233;-89
2022/07/24 06:40:24;;;;;;;3.00;2.70;;;21.70;99.90;;;;;;10607620;27;20593;-89
2022/07/24 06:45:26;;;;;;;3.47;2.65;;;21.50;99.90;;;;;;10625767;27;20248;-90
2022/07/24 06:50:29;;;;;;;3.15;2.83;;;21.60;99.90;;;;;;10625427;27;20624;-91
2022/07/24 06:55:31;;;;;;;3.28;2.97;;;21.60;99.90;;;;;;10606856;27;20207;-89
2022/07/24 07:00:34;;;;;;;5.13;1.88;;;22.00;99.90;;;;;;10624876;27;20204;-89
2022/07/24 07:05:36;;;;;;;2.58;2.00;;;21.70;99.90;;;;;;10588892;27;20608;-89
2022/07/24 07:10:39;;;;;;;4.63;2.20;;;20.90;99.90;;;;;;10624750;27;20233;-90
2022/07/24 07:15:41;;;;;;;2.95;1.80;;;21.40;99.90;;;;;;10605553;27;20204;-89
2022/07/24 07:20:44;;;;;;;3.10;2.80;;;21.60;99.90;;;;;;10588812;27;20558;-89
2022/07/24 07:25:46;;;;;;;3.22;2.70;;;22.10;99.90;;;;;;10606168;27;20189;-89
2022/07/24 07:30:49;;;;;;;4.85;3.13;;;22.10;99.90;;;;;;10623869;27;20220;-89
2022/07/24 07:35:52;;;;;;;2.70;1.75;;;22.20;99.90;;;;;;10623973;27;20201;-90
2022/07/24 07:40:55;;;;;;;3.15;2.85;;;22.20;99.90;;;;;;10623349;27;20253;-90
2022/07/24 07:45:57;;;;;;;4.13;2.08;;;21.80;99.90;;;;;;10604783;27;20196;-89
2022/07/24 07:51:00;;;;;;;3.92;1.40;;;21.50;99.90;;;;;;10623660;28;20188;-89
2022/07/24 07:56:04;;;;;;;2.30;2.10;;;22.00;99.90;;;;;;10604930;28;20737;-90
2022/07/24 08:01:07;;;;;;;2.20;2.00;;;21.70;99.90;;;;;;10604887;28;20264;-89
2022/07/24 08:06:10;;;;;;;3.15;2.85;;;21.80;99.90;;;;;;10604672;28;20204;-91
2022/07/24 08:11:16;;;;;;;3.15;2.25;;;22.10;99.90;;;;;;10605846;28;20238;-89
2022/07/24 08:16:19;;;;;;;2.90;2.65;;;22.20;99.90;;;;;;10605676;28;20573;-89
2022/07/24 08:21:22;;;;;;;2.25;2.05;;;22.40;99.90;;;;;;10626137;28;20289;-90
2022/07/24 08:26:24;;;;;;;3.65;3.25;;;22.20;99.90;;;;;;10604381;28;20253;-89
2022/07/24 08:31:29;;;;;;;3.10;2.90;;;22.10;99.90;;;;;;10622534;28;20249;-89
2022/07/24 08:36:32;;;;;;;4.35;2.10;;;22.50;99.90;;;;;;10622867;28;20238;-89
2022/07/24 08:41:35;;;;;;;3.80;2.90;;;22.10;99.90;;;;;;10622492;28;20288;-90
2022/07/24 08:46:39;;;;;;;2.95;2.65;;;22.60;99.90;;;;;;10604403;28;20248;-89
2022/07/24 08:51:43;;;;;;;2.67;2.40;;;22.50;99.90;;;;;;10605746;27;20196;-89
2022/07/24 08:56:46;;;;;;;3.03;2.72;;;22.70;99.90;;;;;;10630187;27;20222;-90
2022/07/24 09:01:50;;;;;;;2.92;2.70;;;22.50;99.90;;;;;;10629896;27;20265;-90
2022/07/24 09:06:57;;;;;;;2.60;2.40;;;22.50;99.90;;;;;;10629532;27;20192;-90
2022/07/24 09:12:04;;;;;;;3.92;2.33;;;22.70;99.90;;;;;;10629312;27;20542;-89
2022/07/24 09:17:13;;;;;;;2.05;1.70;;;22.60;99.90;;;;;;10593607;27;20556;-90
2022/07/24 09:22:38;;;;;;;2.33;2.10;;;22.80;99.90;;;;;;10628950;27;20212;-90
2022/07/24 09:27:45;;;;;;;2.17;1.98;;;22.60;99.90;;;;;;10609996;27;20203;-90
2022/07/24 09:33:00;;;;;;;2.85;2.58;;;22.80;99.90;;;;;;10628397;27;20224;-89
2022/07/24 09:38:04;;;;;;;3.15;2.03;;;22.90;99.90;;;;;;10610878;27;20233;-90
2022/07/24 09:43:29;;;;;;;2.60;2.40;;;23.10;99.90;;;;;;10610523;27;20215;-89
2022/07/24 09:48:51;;;;;;;2.35;2.15;;;23.10;99.90;;;;;;10609406;27;20200;-89
2022/07/24 09:53:56;;;;;;;2.95;1.80;;;23.20;99.90;;;;;;10609897;27;20229;-89
2022/07/24 09:59:00;;;;;;;2.15;1.40;;;22.40;99.90;;;;;;10609255;27;20249;-89
2022/07/24 10:04:05;;;;;;;2.67;2.47;;;22.70;99.90;;;;;;10627065;27;20249;-90
2022/07/24 10:09:12;;;;;;;2.40;2.20;;;22.80;99.90;;;;;;10608277;27;20196;-89
2022/07/24 10:14:18;;;;;;;3.42;1.92;;;23.10;99.90;;;;;;10609203;27;20601;-89
2022/07/24 10:19:28;;;;;;;3.65;2.00;;;22.90;99.90;;;;;;10608596;27;20614;-89
2022/07/24 10:24:55;;;;;;;2.75;2.42;;;22.60;99.90;;;;;;10629589;27;20682;-89
2022/07/24 10:30:01;;;;;;;3.22;2.78;;;22.90;99.90;;;;;;10628153;27;20563;-89
2022/07/24 10:35:16;;;;;;;2.20;2.00;;;22.90;99.90;;;;;;10593382;27;20613;-88
2022/07/24 10:40:33;;;;;;;2.45;2.22;;;22.80;99.90;;;;;;10592918;27;20737;-89
2022/07/24 10:45:44;;;;;;;2.47;1.73;;;22.90;99.90;;;;;;10626017;27;20208;-89
2022/07/24 10:50:57;;;;;;;2.40;2.20;;;22.80;99.90;;;;;;10625834;27;20685;-89
2022/07/24 10:56:21;;;;;;;1.73;1.63;;;23.00;99.90;;;;;;10607334;27;20605;-89
2022/07/24 11:01:27;;;;;;;3.58;1.88;;;22.60;99.90;;;;;;10589839;27;20242;-89
2022/07/24 11:06:45;;;;;;;2.15;1.95;;;22.90;99.90;;;;;;10625072;27;20249;-89
2022/07/24 11:11:51;;;;;;;2.20;2.08;;;22.70;99.90;;;;;;10606146;27;20200;-89
2022/07/24 11:16:53;;;;;;;2.10;1.60;;;22.80;99.90;;;;;;10623286;27;20226;-89
2022/07/24 11:22:04;;;;;;;1.70;1.60;;;23.00;99.90;;;;;;10624183;27;20242;-90
2022/07/24 11:27:16;;;;;;;2.35;2.15;;;22.80;99.90;;;;;;10624314;27;20253;-89
2022/07/24 11:32:18;;;;;;;2.80;2.20;;;23.20;99.90;;;;;;10605789;27;20220;-89
2022/07/24 11:37:29;;;;;;;2.78;2.15;;;23.40;99.90;;;;;;10606529;27;20192;-90
2022/07/24 11:42:37;;;;;;;3.38;2.38;;;23.30;99.90;;;;;;10606646;27;20557;-89
2022/07/24 11:47:39;;;;;;;2.65;2.45;;;23.30;99.90;;;;;;10623496;27;20548;-89
2022/07/24 11:52:42;;;;;;;2.90;2.58;;;23.10;99.90;;;;;;10623926;28;20193;-89
2022/07/24 11:57:58;;;;;;;3.85;2.67;;;23.10;99.90;;;;;;10623476;28;20197;-88
2022/07/24 12:03:23;;;;;;;2.70;2.50;;;23.30;99.90;;;;;;10623442;28;20257;-89
2022/07/24 12:08:27;;;;;;;5.43;2.50;;;23.30;99.90;;;;;;10623525;28;20604;-89
2022/07/24 12:13:32;;;;;;;2.90;2.30;;;23.20;99.90;;;;;;10604321;28;20226;-89
2022/07/24 12:18:35;;;;;;;2.28;2.08;;;23.30;99.90;;;;;;10604390;28;20261;-88
2022/07/24 12:23:38;;;;;;;2.10;1.85;;;23.10;99.90;;;;;;10605051;28;20216;-89
2022/07/24 12:28:40;;;;;;;7.30;1.95;;;23.30;99.90;;;;;;10611248;27;20188;-89
2022/07/24 12:33:53;;;;;;;1.88;1.77;;;23.50;99.90;;;;;;10631158;27;20224;-89
2022/07/24 12:38:57;;;;;;;2.50;2.30;;;23.50;99.90;;;;;;10595696;27;20226;-89
2022/07/24 12:44:00;;;;;;;2.80;2.20;;;23.50;99.90;;;;;;10630682;27;20265;-89
2022/07/24 12:49:09;;;;;;;3.20;2.17;;;23.70;99.90;;;;;;10612343;27;20208;-90
2022/07/24 12:54:33;;;;;;;4.07;2.83;;;23.70;99.90;;;;;;10612539;27;20272;-89
2022/07/24 12:59:37;;;;;;;2.47;1.92;;;23.80;99.90;;;;;;10630135;27;20592;-88
2022/07/24 13:04:41;;;;;;;2.67;2.45;;;23.70;99.90;;;;;;10630118;27;20281;-89
2022/07/24 13:09:44;;;;;;;6.03;2.60;;;23.70;99.90;;;;;;10629697;27;20234;-90
2022/07/24 13:14:47;;;;;;;2.30;2.10;;;23.80;99.90;;;;;;10629927;27;20218;-88
2022/07/24 13:19:51;;;;;;;2.03;1.92;;;23.60;99.90;;;;;;10611088;27;20269;-88
2022/07/24 13:24:54;;;;;;;3.58;2.65;;;23.90;99.90;;;;;;10611216;27;20583;-88
2022/07/24 13:29:56;;;;;;;3.25;2.78;;;23.90;99.90;;;;;;10628873;27;20234;-89
2022/07/24 13:34:59;;;;;;;2.42;2.22;;;24.00;99.90;;;;;;10610895;27;20200;-88
2022/07/24 13:40:04;;;;;;;3.53;1.90;;;23.90;99.90;;;;;;10609943;27;20196;-89
2022/07/24 13:45:08;;;;;;;2.60;2.40;;;24.00;99.90;;;;;;10592666;27;20254;-88
2022/07/24 13:50:11;;;;;;;4.80;2.42;;;24.10;99.90;;;;;;10610095;27;20243;-88
2022/07/24 13:55:13;;;;;;;3.45;2.55;;;24.20;99.90;;;;;;10592838;27;20205;-89
2022/07/24 14:00:16;;;;;;;3.17;2.60;;;24.10;99.90;;;;;;10628012;27;20221;-88
2022/07/24 14:05:19;;;;;;;2.10;1.90;;;24.10;99.90;;;;;;10609831;27;20696;-87
2022/07/24 14:10:22;;;;;;;2.40;2.20;;;24.20;99.90;;;;;;10627763;27;20261;-88
2022/07/24 14:15:24;;;;;;;2.90;2.70;;;24.20;99.90;;;;;;10627497;27;20241;-88
2022/07/24 14:20:27;;;;;;;2.67;2.47;;;24.10;99.90;;;;;;10627150;27;20225;-89
2022/07/24 14:25:29;;;;;;;3.40;2.70;;;24.20;99.90;;;;;;10607911;27;20605;-89
2022/07/24 14:30:32;;;;;;;2.45;2.25;;;24.30;99.90;;;;;;10626764;27;20217;-89
2022/07/24 14:35:35;;;;;;;3.50;2.30;;;24.30;99.90;;;;;;10591234;27;20204;-90
2022/07/24 14:40:37;;;;;;;2.40;2.20;;;24.30;99.90;;;;;;10626481;27;20217;-89
2022/07/24 14:45:40;;;;;;;2.83;2.63;;;24.40;99.90;;;;;;10609557;27;20220;-89
2022/07/24 14:50:43;;;;;;;1.90;1.80;;;24.40;99.90;;;;;;10607718;27;20192;-90
2022/07/24 14:55:45;;;;;;;2.25;2.05;;;24.40;99.90;;;;;;10626053;27;20668;-89
2022/07/24 15:00:48;;;;;;;2.83;2.63;;;24.40;99.90;;;;;;10625044;27;20251;-89
2022/07/24 15:05:51;;;;;;;2.60;2.40;;;24.40;99.90;;;;;;10606932;27;20220;-89
2022/07/24 15:10:53;;;;;;;2.50;2.30;;;24.40;99.90;;;;;;10625188;27;20237;-89
2022/07/24 15:15:56;;;;;;;2.78;2.58;;;24.40;99.90;;;;;;10608761;27;20248;-89
2022/07/24 15:20:59;;;;;;;2.60;2.40;;;24.40;99.90;;;;;;10625960;27;20598;-89
2022/07/24 15:26:02;;;;;;;2.95;2.70;;;24.40;99.90;;;;;;10609463;27;20224;-89
2022/07/24 15:31:05;;;;;;;3.17;2.97;;;24.40;99.90;;;;;;10606370;27;20281;-89
2022/07/24 15:36:11;;;;;;;2.25;1.98;;;24.40;99.90;;;;;;10605506;27;20676;-88
2022/07/24 15:41:15;;;;;;;2.78;2.25;;;24.40;99.90;;;;;;10624003;27;20192;-88
2022/07/24 15:46:17;;;;;;;3.53;2.00;;;24.50;99.90;;;;;;10623813;27;20277;-89
2022/07/24 15:51:20;;;;;;;3.17;2.88;;;24.40;99.90;;;;;;10623660;28;20557;-90
2022/07/24 15:56:22;;;;;;;3.40;1.65;;;24.40;99.90;;;;;;10623915;28;20657;-89
2022/07/24 16:01:25;;;;;;;3.35;2.05;;;24.40;97.20;;;;;;10626912;27;20252;-89
2022/07/24 16:06:46;;;;;;;2.90;2.70;;;24.40;99.90;;;;;;10614641;27;20220;-89
2022/07/24 16:11:49;;;;;;;2.20;2.00;;;24.50;99.90;;;;;;10632801;27;20237;-89
2022/07/24 16:16:57;;;;;;;2.67;1.58;;;24.50;99.90;;;;;;10613248;27;20233;-89
2022/07/24 16:22:00;;;;;;;2.78;2.58;;;24.50;97.00;;;;;;10596248;27;20200;-89
2022/07/24 16:27:03;;;;;;;2.83;2.63;;;24.50;99.90;;;;;;10631399;27;20216;-89
2022/07/24 16:32:06;;;;;;;2.53;2.33;;;24.60;99.90;;;;;;10613176;27;20245;-90
2022/07/24 16:37:09;;;;;;;1.38;1.17;;;24.70;99.90;;;;;;10631051;27;20231;-89
2022/07/24 16:42:11;;;;;;;2.25;2.05;;;24.70;95.40;;;;;;10631133;27;20188;-89
2022/07/24 16:47:17;;;;;;;2.45;2.25;;;24.70;99.90;;;;;;10611981;27;20234;-89
2022/07/24 16:52:22;;;;;;;2.78;2.58;;;24.80;99.90;;;;;;10612069;27;20200;-89
2022/07/24 16:57:44;;;;;;;1.73;1.60;;;24.90;99.90;;;;;;10631109;27;20241;-89
2022/07/24 17:02:47;;;;;;;3.10;2.33;;;24.80;99.90;;;;;;10613809;27;20261;-90
2022/07/24 17:07:49;;;;;;;2.72;2.45;;;24.80;99.20;;;;;;10630198;27;20241;-89
2022/07/24 17:12:53;;;;;;;2.35;2.15;;;24.70;98.40;;;;;;10629087;27;20197;-90
2022/07/24 17:17:58;;;;;;;1.95;1.80;;;24.70;99.90;;;;;;10629395;27;20200;-89
2022/07/24 17:23:04;;;;;;;2.50;2.30;;;24.70;99.90;;;;;;10611254;27;20220;-89
2022/07/24 17:28:13;;;;;;;1.65;1.55;;;24.70;99.90;;;;;;10629456;27;20221;-89
2022/07/24 17:33:15;;;;;;;2.55;2.35;;;24.60;99.10;;;;;;10610289;27;20788;-88
2022/07/24 17:38:18;;;;;;;1.42;1.10;;;24.40;99.90;;;;;;10628774;27;20237;-89
2022/07/24 17:43:21;;;;;;;1.67;1.48;;;24.40;95.80;;;;;;10628291;27;20219;-89
2022/07/24 17:48:24;;;;;;;2.78;2.08;;;24.20;99.90;;;;;;10610122;27;20204;-89
2022/07/24 17:53:26;;;;;;;2.33;2.13;;;24.10;99.90;;;;;;10628105;27;20196;-90
2022/07/24 17:58:29;;;;;;;3.53;1.83;;;24.00;99.90;;;;;;10628156;27;20188;-89
2022/07/24 18:03:32;;;;;;;2.55;2.35;;;23.80;99.90;;;;;;10609796;27;20233;-89
2022/07/24 18:08:34;;;;;;;2.10;1.90;;;23.80;99.90;;;;;;10608982;27;20184;-90
2022/07/24 18:13:37;;;;;;;6.82;2.72;;;23.80;99.90;;;;;;10609373;27;20192;-90
2022/07/24 18:18:40;;;;;;;2.90;2.22;;;23.60;99.90;;;;;;10608642;27;20196;-88
2022/07/24 18:23:43;;;;;;;2.20;2.10;;;23.60;99.90;;;;;;10608390;27;20281;-89
2022/07/24 18:28:45;;;;;;;2.83;2.63;;;23.50;99.90;;;;;;10626691;27;20189;-89
2022/07/24 18:33:48;;;;;;;2.38;2.17;;;23.40;99.90;;;;;;10607991;27;20224;-89
2022/07/24 18:38:52;;;;;;;2.67;2.47;;;23.30;99.90;;;;;;10607747;27;20249;-89
2022/07/24 18:43:55;;;;;;;2.30;2.13;;;23.20;99.90;;;;;;10625854;27;20556;-90
2022/07/24 18:48:58;;;;;;;2.83;2.63;;;23.10;99.90;;;;;;10606721;27;20208;-89
2022/07/24 18:54:01;;;;;;;2.45;2.20;;;23.10;99.90;;;;;;10625627;27;20196;-89
2022/07/24 18:59:03;;;;;;;2.60;2.40;;;23.00;99.90;;;;;;10625214;27;20556;-88
2022/07/24 19:04:06;;;;;;;2.30;2.15;;;23.00;99.90;;;;;;10624960;27;20268;-90
2022/07/24 19:09:09;;;;;;;2.50;2.30;;;22.90;99.90;;;;;;10607226;27;20218;-89
2022/07/24 19:14:11;;;;;;;2.65;2.45;;;22.90;99.90;;;;;;10625124;27;20583;-90
2022/07/24 19:19:14;;;;;;;3.03;2.83;;;22.80;99.90;;;;;;10624594;27;20200;-89
2022/07/24 19:24:21;;;;;;;2.60;2.40;;;22.80;99.90;;;;;;10624566;27;20216;-89
2022/07/24 19:29:44;;;;;;;2.90;2.70;;;22.70;99.90;;;;;;10609604;27;20232;-89
2022/07/24 19:34:46;;;;;;;2.85;2.65;;;22.70;99.90;;;;;;10604468;27;20276;-88
2022/07/24 19:39:50;;;;;;;3.00;2.70;;;22.60;99.90;;;;;;10605909;27;20241;-89
2022/07/24 19:44:52;;;;;;;2.78;2.58;;;22.70;99.90;;;;;;10604926;27;20223;-89
2022/07/24 19:49:55;;;;;;;3.00;2.72;;;22.70;99.90;;;;;;10623454;27;20188;-89
2022/07/24 19:54:57;;;;;;;2.92;2.72;;;22.60;99.90;;;;;;10588327;28;20200;-89
2022/07/24 20:00:00;;;;;;;3.17;2.88;;;22.60;99.90;;;;;;10623435;28;20247;-88
2022/07/24 20:05:12;;;;;;;3.50;2.97;;;22.60;99.90;;;;;;10624277;27;20216;-89
2022/07/24 20:10:15;;;;;;;2.92;2.63;;;22.60;99.90;;;;;;10623291;28;20241;-89
2022/07/24 20:15:17;;;;;;;3.70;3.13;;;22.60;99.90;;;;;;10605182;28;20196;-89
2022/07/24 20:20:20;;;;;;;3.60;3.28;;;22.60;99.90;;;;;;10604577;28;20200;-89
2022/07/24 20:25:23;;;;;;;3.63;3.33;;;22.50;99.90;;;;;;10604013;28;20228;-89
2022/07/24 20:30:26;;;;;;;2.97;2.72;;;22.50;99.90;;;;;;10604892;28;20223;-89
2022/07/24 20:35:28;;;;;;;3.15;2.85;;;22.50;99.90;;;;;;10622584;28;20253;-89
2022/07/24 20:40:30;;;;;;;2.53;2.33;;;22.50;99.90;;;;;;10604469;28;20237;-89
2022/07/24 20:45:36;;;;;;;3.42;3.17;;;22.40;99.90;;;;;;10604927;28;20257;-89
2022/07/24 20:50:38;;;;;;;3.33;2.67;;;22.40;99.90;;;;;;10611982;27;20193;-89
2022/07/24 20:55:44;;;;;;;3.63;3.00;;;22.40;99.90;;;;;;10610987;27;20208;-88
2022/07/24 21:00:51;;;;;;;2.90;2.70;;;22.40;99.90;;;;;;10595131;27;20245;-89
2022/07/24 21:06:01;;;;;;;2.95;2.70;;;22.40;99.90;;;;;;10610878;27;20280;-89
2022/07/24 21:11:03;;;;;;;2.63;2.42;;;22.40;99.90;;;;;;10629797;27;20192;-89
2022/07/24 21:16:06;;;;;;;3.50;3.00;;;22.40;99.90;;;;;;10611276;27;20196;-89
2022/07/24 21:21:10;;;;;;;3.20;2.97;;;22.30;99.90;;;;;;10610602;27;20204;-89
2022/07/24 21:26:13;;;;;;;2.65;2.42;;;22.30;99.90;;;;;;10610895;27;20265;-89
2022/07/24 21:31:18;;;;;;;5.53;4.32;;;22.40;99.90;;;;;;10610989;27;20220;-88
2022/07/24 21:36:22;;;;;;;4.03;3.00;;;22.30;99.90;;;;;;10610922;27;20217;-88
2022/07/24 21:41:24;;;;;;;2.63;2.42;;;22.30;99.90;;;;;;10610588;27;20200;-89
2022/07/24 21:46:27;;;;;;;3.38;3.13;;;22.30;99.90;;;;;;10609318;27;20216;-89
2022/07/24 21:51:29;;;;;;;3.90;2.67;;;22.30;99.90;;;;;;10628068;27;20558;-88
2022/07/24 21:56:32;;;;;;;3.08;2.72;;;22.30;99.90;;;;;;10609589;27;20680;-89
2022/07/24 22:01:35;;;;;;;5.03;3.10;;;22.30;99.90;;;;;;10608933;27;20204;-88
2022/07/24 22:06:39;;;;;;;3.25;2.92;;;22.30;99.90;;;;;;10609238;27;20574;-88
2022/07/24 22:11:42;;;;;;;3.10;2.90;;;22.20;99.90;;;;;;10608471;27;20200;-89
2022/07/24 22:16:44;;;;;;;3.15;2.78;;;22.20;99.90;;;;;;10608950;27;20544;-88
2022/07/24 22:21:47;;;;;;;4.18;3.20;;;22.20;99.90;;;;;;10626767;27;20196;-89
2022/07/24 22:26:50;;;;;;;2.92;2.60;;;22.20;99.90;;;;;;10626484;27;20212;-89
2022/07/24 22:31:52;;;;;;;3.50;3.20;;;22.20;99.90;;;;;;10608755;27;20220;-89
2022/07/24 22:36:55;;;;;;;3.58;3.28;;;22.20;99.90;;;;;;10630086;27;20261;-89
2022/07/24 22:42:00;;;;;;;4.32;2.90;;;22.20;99.90;;;;;;10607692;27;20568;-89
2022/07/24 22:47:03;;;;;;;3.25;2.95;;;22.20;99.90;;;;;;10606653;27;20216;-88
2022/07/24 22:52:06;;;;;;;3.70;3.15;;;22.20;99.90;;;;;;10625562;27;20241;-88
2022/07/24 22:57:10;;;;;;;3.38;3.08;;;22.20;99.90;;;;;;10625201;27;20192;-89
2022/07/24 23:02:14;;;;;;;2.60;2.40;;;22.20;99.90;;;;;;10606843;27;20204;-88
2022/07/24 23:07:17;;;;;;;3.08;2.78;;;22.20;99.90;;;;;;10624910;27;20219;-88
2022/07/24 23:12:20;;;;;;;3.45;2.80;;;22.10;99.90;;;;;;10606233;27;20238;-89
2022/07/24 23:17:22;;;;;;;3.05;2.67;;;22.20;99.90;;;;;;10624825;27;20231;-89
2022/07/24 23:22:34;;;;;;;3.55;3.08;;;22.10;99.90;;;;;;10624704;27;20608;-89
2022/07/24 23:27:37;;;;;;;3.42;3.13;;;22.20;99.90;;;;;;10624424;27;20220;-89
2022/07/24 23:32:39;;;;;;;2.83;2.58;;;22.20;99.90;;;;;;10588225;27;20224;-89
2022/07/24 23:37:42;;;;;;;2.72;2.53;;;22.10;99.90;;;;;;10605898;27;20248;-89
2022/07/24 23:42:48;;;;;;;3.10;2.80;;;22.10;99.90;;;;;;10623835;27;20564;-89
2022/07/24 23:47:52;;;;;;;3.55;3.25;;;22.20;99.90;;;;;;10623557;27;20216;-89
2022/07/24 23:52:54;;;;;;;3.42;3.13;;;22.10;99.90;;;;;;10605585;27;20193;-89
2022/07/24 23:57:57;;;;;;;3.50;2.80;;;22.10;99.90;;;;;;10605408;28;20200;-88
